sensor_id;sensor_type;location;lat;lon;timestamp;temperature;humidity
67893;DHT22;54688;52.376;16.744;2022-09-16T00:00:50;10.1;77.5
67893;DHT22;54688;52.376;16.744;2022-09-16T00:04:11;10;77.5
67893;DHT22;54688;52.376;16.744;2022-09-16T00:07:13;10;77.6
67893;DHT22;54688;52.376;16.744;2022-09-16T00:10:15;9.9;78
67893;DHT22;54688;52.376;16.744;2022-09-16T00:13:18;9.9;78.5
67893;DHT22;54688;52.376;16.744;2022-09-16T00:16:21;9.9;78.2
67893;DHT22;54688;52.376;16.744;2022-09-16T00:19:24;9.9;78.4
67893;DHT22;54688;52.376;16.744;2022-09-16T00:22:26;9.8;78.4
67893;DHT22;54688;52.376;16.744;2022-09-16T00:25:29;9.9;78.5
67893;DHT22;54688;52.376;16.744;2022-09-16T00:28:32;9.9;78.4
67893;DHT22;54688;52.376;16.744;2022-09-16T00:31:34;9.9;78.7
67893;DHT22;54688;52.376;16.744;2022-09-16T00:34:37;9.9;78.4
67893;DHT22;54688;52.376;16.744;2022-09-16T00:37:38;9.9;78.2
67893;DHT22;54688;52.376;16.744;2022-09-16T00:40:43;10;78.2
67893;DHT22;54688;52.376;16.744;2022-09-16T00:43:49;10;78.3
67893;DHT22;54688;52.376;16.744;2022-09-16T00:46:54;9.9;77.5
67893;DHT22;54688;52.376;16.744;2022-09-16T00:49:57;9.9;78.2
67893;DHT22;54688;52.376;16.744;2022-09-16T00:53:03;9.8;78.4
67893;DHT22;54688;52.376;16.744;2022-09-16T00:56:06;9.8;78.7
67893;DHT22;54688;52.376;16.744;2022-09-16T00:59:11;9.7;78.7
67893;DHT22;54688;52.376;16.744;2022-09-16T01:02:16;9.6;78.9
67893;DHT22;54688;52.376;16.744;2022-09-16T01:05:22;9.6;79.4
67893;DHT22;54688;52.376;16.744;2022-09-16T01:08:25;9.5;79.7
67893;DHT22;54688;52.376;16.744;2022-09-16T01:11:27;9.4;80.8
67893;DHT22;54688;52.376;16.744;2022-09-16T01:17:30;9.3;80.4
67893;DHT22;54688;52.376;16.744;2022-09-16T01:20:48;9.3;80.6
67893;DHT22;54688;52.376;16.744;2022-09-16T01:24:41;9.2;81
67893;DHT22;54688;52.376;16.744;2022-09-16T01:28:05;9.2;81.3
67893;DHT22;54688;52.376;16.744;2022-09-16T01:31:20;9.1;81.5
67893;DHT22;54688;52.376;16.744;2022-09-16T01:34:26;9.1;81.7
67893;DHT22;54688;52.376;16.744;2022-09-16T01:37:38;9.1;81.8
67893;DHT22;54688;52.376;16.744;2022-09-16T01:40:48;9;81.1
67893;DHT22;54688;52.376;16.744;2022-09-16T01:44:00;9;82.8
67893;DHT22;54688;52.376;16.744;2022-09-16T01:47:07;9;82.3
67893;DHT22;54688;52.376;16.744;2022-09-16T01:50:14;9;82.3
67893;DHT22;54688;52.376;16.744;2022-09-16T01:53:22;8.9;82.7
67893;DHT22;54688;52.376;16.744;2022-09-16T01:56:32;9;82.7
67893;DHT22;54688;52.376;16.744;2022-09-16T01:59:41;8.9;82
67893;DHT22;54688;52.376;16.744;2022-09-16T02:02:47;8.9;82.7
67893;DHT22;54688;52.376;16.744;2022-09-16T02:05:54;8.9;82.7
67893;DHT22;54688;52.376;16.744;2022-09-16T02:09:01;8.9;82.9
67893;DHT22;54688;52.376;16.744;2022-09-16T02:12:08;8.8;82.9
67893;DHT22;54688;52.376;16.744;2022-09-16T02:15:14;8.8;83.2
67893;DHT22;54688;52.376;16.744;2022-09-16T02:18:21;8.7;83.2
67893;DHT22;54688;52.376;16.744;2022-09-16T02:21:28;8.7;83.2
67893;DHT22;54688;52.376;16.744;2022-09-16T02:24:32;8.6;83.5
67893;DHT22;54688;52.376;16.744;2022-09-16T02:27:36;8.6;83.7
67893;DHT22;54688;52.376;16.744;2022-09-16T02:30:40;8.6;84.3
67893;DHT22;54688;52.376;16.744;2022-09-16T02:33:46;8.5;83.9
67893;DHT22;54688;52.376;16.744;2022-09-16T02:36:54;8.5;84.1
67893;DHT22;54688;52.376;16.744;2022-09-16T02:40:03;8.5;84.9
67893;DHT22;54688;52.376;16.744;2022-09-16T02:43:09;8.5;84.3
67893;DHT22;54688;52.376;16.744;2022-09-16T02:46:15;8.5;84.6
67893;DHT22;54688;52.376;16.744;2022-09-16T02:49:25;8.4;84.9
67893;DHT22;54688;52.376;16.744;2022-09-16T02:52:32;8.5;85.2
67893;DHT22;54688;52.376;16.744;2022-09-16T02:55:42;8.5;85.1
67893;DHT22;54688;52.376;16.744;2022-09-16T02:58:51;8.5;85.1
67893;DHT22;54688;52.376;16.744;2022-09-16T03:01:54;8.5;85.2
67893;DHT22;54688;52.376;16.744;2022-09-16T03:04:57;8.4;85.2
67893;DHT22;54688;52.376;16.744;2022-09-16T03:07:59;8.4;85.5
67893;DHT22;54688;52.376;16.744;2022-09-16T03:11:02;8.4;85.3
67893;DHT22;54688;52.376;16.744;2022-09-16T03:14:18;8.5;85.5
67893;DHT22;54688;52.376;16.744;2022-09-16T03:17:37;8.4;85.5
67893;DHT22;54688;52.376;16.744;2022-09-16T03:20:50;8.4;85.6
67893;DHT22;54688;52.376;16.744;2022-09-16T03:24:02;8.4;86.1
67893;DHT22;54688;52.376;16.744;2022-09-16T03:27:11;8.4;86.2
67893;DHT22;54688;52.376;16.744;2022-09-16T03:30:17;8.4;86.2
67893;DHT22;54688;52.376;16.744;2022-09-16T03:33:21;8.5;86.2
67893;DHT22;54688;52.376;16.744;2022-09-16T03:36:28;8.5;86.2
67893;DHT22;54688;52.376;16.744;2022-09-16T03:39:33;8.5;85.9
67893;DHT22;54688;52.376;16.744;2022-09-16T03:42:37;8.4;85.8
67893;DHT22;54688;52.376;16.744;2022-09-16T03:45:40;8.4;86
67893;DHT22;54688;52.376;16.744;2022-09-16T03:48:44;8.4;86.4
67893;DHT22;54688;52.376;16.744;2022-09-16T03:51:46;8.5;86.6
67893;DHT22;54688;52.376;16.744;2022-09-16T03:54:48;8.5;86.6
67893;DHT22;54688;52.376;16.744;2022-09-16T03:57:51;8.4;86.7
67893;DHT22;54688;52.376;16.744;2022-09-16T04:00:56;8.5;86.7
67893;DHT22;54688;52.376;16.744;2022-09-16T04:04:12;8.5;86.6
67893;DHT22;54688;52.376;16.744;2022-09-16T04:07:14;8.5;86.6
67893;DHT22;54688;52.376;16.744;2022-09-16T04:10:16;8.5;86.6
67893;DHT22;54688;52.376;16.744;2022-09-16T04:13:18;8.5;86.7
67893;DHT22;54688;52.376;16.744;2022-09-16T04:16:20;8.5;86.7
67893;DHT22;54688;52.376;16.744;2022-09-16T04:19:23;8.5;86.7
67893;DHT22;54688;52.376;16.744;2022-09-16T04:22:26;8.5;86.6
67893;DHT22;54688;52.376;16.744;2022-09-16T04:25:31;8.5;86.5
67893;DHT22;54688;52.376;16.744;2022-09-16T04:28:33;8.5;86.3
67893;DHT22;54688;52.376;16.744;2022-09-16T04:31:49;8.5;86.5
67893;DHT22;54688;52.376;16.744;2022-09-16T04:34:52;8.6;86.4
67893;DHT22;54688;52.376;16.744;2022-09-16T04:37:54;8.5;86.4
67893;DHT22;54688;52.376;16.744;2022-09-16T04:40:58;8.5;86.6
67893;DHT22;54688;52.376;16.744;2022-09-16T04:44:01;8.5;86.6
67893;DHT22;54688;52.376;16.744;2022-09-16T04:47:03;8.5;86.7
67893;DHT22;54688;52.376;16.744;2022-09-16T04:50:07;8.5;86.4
67893;DHT22;54688;52.376;16.744;2022-09-16T04:53:10;8.5;86.6
67893;DHT22;54688;52.376;16.744;2022-09-16T04:56:12;8.5;86.9
67893;DHT22;54688;52.376;16.744;2022-09-16T04:59:17;8.5;86.6
67893;DHT22;54688;52.376;16.744;2022-09-16T05:02:20;8.6;86.7
67893;DHT22;54688;52.376;16.744;2022-09-16T05:05:22;8.6;85.8
67893;DHT22;54688;52.376;16.744;2022-09-16T05:08:24;8.6;86.8
67893;DHT22;54688;52.376;16.744;2022-09-16T05:11:26;8.6;86.9
67893;DHT22;54688;52.376;16.744;2022-09-16T05:14:30;8.6;87
67893;DHT22;54688;52.376;16.744;2022-09-16T05:17:32;8.6;86.5
67893;DHT22;54688;52.376;16.744;2022-09-16T05:20:34;8.7;86.8
67893;DHT22;54688;52.376;16.744;2022-09-16T05:23:36;8.7;86.7
67893;DHT22;54688;52.376;16.744;2022-09-16T05:26:39;8.7;86.8
67893;DHT22;54688;52.376;16.744;2022-09-16T05:29:43;8.7;87
67893;DHT22;54688;52.376;16.744;2022-09-16T05:32:45;8.8;86.8
67893;DHT22;54688;52.376;16.744;2022-09-16T05:35:46;8.8;86.8
67893;DHT22;54688;52.376;16.744;2022-09-16T05:38:48;8.9;86.6
67893;DHT22;54688;52.376;16.744;2022-09-16T05:41:52;8.9;87.1
67893;DHT22;54688;52.376;16.744;2022-09-16T05:44:56;8.9;86.5
67893;DHT22;54688;52.376;16.744;2022-09-16T05:47:58;9;86.5
67893;DHT22;54688;52.376;16.744;2022-09-16T05:51:03;9.1;86.5
67893;DHT22;54688;52.376;16.744;2022-09-16T05:54:06;9.1;86.3
67893;DHT22;54688;52.376;16.744;2022-09-16T05:57:09;9.2;86.1
67893;DHT22;54688;52.376;16.744;2022-09-16T06:00:11;9.3;85.9
67893;DHT22;54688;52.376;16.744;2022-09-16T06:03:14;9.3;85.5
67893;DHT22;54688;52.376;16.744;2022-09-16T06:06:17;9.4;85.2
67893;DHT22;54688;52.376;16.744;2022-09-16T06:09:23;9.4;85.1
67893;DHT22;54688;52.376;16.744;2022-09-16T06:12:26;9.5;84.6
67893;DHT22;54688;52.376;16.744;2022-09-16T06:15:28;9.6;84.2
67893;DHT22;54688;52.376;16.744;2022-09-16T06:18:30;9.6;83.2
67893;DHT22;54688;52.376;16.744;2022-09-16T06:21:32;9.7;83.6
67893;DHT22;54688;52.376;16.744;2022-09-16T06:24:34;9.7;83.1
67893;DHT22;54688;52.376;16.744;2022-09-16T06:27:36;9.8;83.4
67893;DHT22;54688;52.376;16.744;2022-09-16T06:30:38;9.9;82.8
67893;DHT22;54688;52.376;16.744;2022-09-16T06:33:40;10;82.9
67893;DHT22;54688;52.376;16.744;2022-09-16T06:36:42;10.1;81.7
67893;DHT22;54688;52.376;16.744;2022-09-16T06:39:44;10.2;80.6
67893;DHT22;54688;52.376;16.744;2022-09-16T06:42:46;10.3;79.5
67893;DHT22;54688;52.376;16.744;2022-09-16T06:45:48;10.3;79.3
67893;DHT22;54688;52.376;16.744;2022-09-16T06:48:50;10.4;79.1
67893;DHT22;54688;52.376;16.744;2022-09-16T06:51:55;10.4;78.5
67893;DHT22;54688;52.376;16.744;2022-09-16T06:54:58;10.4;78.3
67893;DHT22;54688;52.376;16.744;2022-09-16T06:58:00;10.5;78.3
67893;DHT22;54688;52.376;16.744;2022-09-16T07:01:03;10.6;77.5
67893;DHT22;54688;52.376;16.744;2022-09-16T07:04:07;10.6;76.5
67893;DHT22;54688;52.376;16.744;2022-09-16T07:07:10;10.6;76.5
67893;DHT22;54688;52.376;16.744;2022-09-16T07:10:12;10.7;75.4
67893;DHT22;54688;52.376;16.744;2022-09-16T07:13:14;10.7;75.1
67893;DHT22;54688;52.376;16.744;2022-09-16T07:16:16;10.7;74.4
67893;DHT22;54688;52.376;16.744;2022-09-16T07:19:19;10.8;74.9
67893;DHT22;54688;52.376;16.744;2022-09-16T07:22:21;10.8;73.9
67893;DHT22;54688;52.376;16.744;2022-09-16T07:25:23;10.9;73.8
67893;DHT22;54688;52.376;16.744;2022-09-16T07:28:24;10.9;72.9
67893;DHT22;54688;52.376;16.744;2022-09-16T07:31:27;11;72.8
67893;DHT22;54688;52.376;16.744;2022-09-16T07:34:31;11;73.2
67893;DHT22;54688;52.376;16.744;2022-09-16T07:37:33;11.1;72.1
67893;DHT22;54688;52.376;16.744;2022-09-16T07:40:35;11.1;72.4
67893;DHT22;54688;52.376;16.744;2022-09-16T07:43:38;11.3;71.1
67893;DHT22;54688;52.376;16.744;2022-09-16T07:46:41;11.3;71.6
67893;DHT22;54688;52.376;16.744;2022-09-16T07:49:43;11.4;70.3
67893;DHT22;54688;52.376;16.744;2022-09-16T07:52:46;11.5;70.3
67893;DHT22;54688;52.376;16.744;2022-09-16T07:55:48;11.7;69.1
67893;DHT22;54688;52.376;16.744;2022-09-16T07:58:51;11.8;69.9
67893;DHT22;54688;52.376;16.744;2022-09-16T08:04:52;11.9;67.4
67893;DHT22;54688;52.376;16.744;2022-09-16T08:07:54;12;66.5
67893;DHT22;54688;52.376;16.744;2022-09-16T08:10:56;12.1;67
67893;DHT22;54688;52.376;16.744;2022-09-16T08:13:59;12.2;66.3
67893;DHT22;54688;52.376;16.744;2022-09-16T08:17:02;12.2;66.7
67893;DHT22;54688;52.376;16.744;2022-09-16T08:20:05;12.4;65.8
67893;DHT22;54688;52.376;16.744;2022-09-16T08:23:07;12.5;64.4
67893;DHT22;54688;52.376;16.744;2022-09-16T08:26:09;12.6;62.9
67893;DHT22;54688;52.376;16.744;2022-09-16T08:29:12;12.6;62.7
67893;DHT22;54688;52.376;16.744;2022-09-16T08:32:14;12.7;62.7
67893;DHT22;54688;52.376;16.744;2022-09-16T08:35:15;12.8;62.9
67893;DHT22;54688;52.376;16.744;2022-09-16T08:38:18;12.8;60.4
67893;DHT22;54688;52.376;16.744;2022-09-16T08:41:23;12.9;60.7
67893;DHT22;54688;52.376;16.744;2022-09-16T08:44:33;12.9;61.5
67893;DHT22;54688;52.376;16.744;2022-09-16T08:47:45;13;61.9
67893;DHT22;54688;52.376;16.744;2022-09-16T08:50:55;13;61.4
67893;DHT22;54688;52.376;16.744;2022-09-16T08:54:02;13.1;62.1
67893;DHT22;54688;52.376;16.744;2022-09-16T08:57:08;13.3;62.2
67893;DHT22;54688;52.376;16.744;2022-09-16T09:00:15;13.4;60.8
67893;DHT22;54688;52.376;16.744;2022-09-16T09:03:23;13.5;59
67893;DHT22;54688;52.376;16.744;2022-09-16T09:06:41;13.5;58.7
67893;DHT22;54688;52.376;16.744;2022-09-16T09:09:53;13.6;58.8
67893;DHT22;54688;52.376;16.744;2022-09-16T09:13:06;13.8;58
67893;DHT22;54688;52.376;16.744;2022-09-16T09:16:16;13.9;57.3
67893;DHT22;54688;52.376;16.744;2022-09-16T09:19:29;14;57.1
67893;DHT22;54688;52.376;16.744;2022-09-16T09:22:59;14.1;57.8
67893;DHT22;54688;52.376;16.744;2022-09-16T09:26:10;14.2;56.7
67893;DHT22;54688;52.376;16.744;2022-09-16T09:29:27;14.2;55.7
67893;DHT22;54688;52.376;16.744;2022-09-16T09:32:41;14.1;55.5
67893;DHT22;54688;52.376;16.744;2022-09-16T09:35:56;14;57
67893;DHT22;54688;52.376;16.744;2022-09-16T09:39:14;13.9;57
67893;DHT22;54688;52.376;16.744;2022-09-16T09:42:24;13.9;57.5
67893;DHT22;54688;52.376;16.744;2022-09-16T09:45:30;13.9;56.9
67893;DHT22;54688;52.376;16.744;2022-09-16T09:48:37;13.9;56.3
67893;DHT22;54688;52.376;16.744;2022-09-16T09:51:43;13.9;55.9
67893;DHT22;54688;52.376;16.744;2022-09-16T09:54:51;14;55.6
67893;DHT22;54688;52.376;16.744;2022-09-16T09:57:56;14.1;55.2
67893;DHT22;54688;52.376;16.744;2022-09-16T10:01:04;14.3;54.2
67893;DHT22;54688;52.376;16.744;2022-09-16T10:04:07;14.5;53
67893;DHT22;54688;52.376;16.744;2022-09-16T10:07:15;14.5;53.8
67893;DHT22;54688;52.376;16.744;2022-09-16T10:10:20;14.6;53.8
67893;DHT22;54688;52.376;16.744;2022-09-16T10:13:25;14.7;52.8
67893;DHT22;54688;52.376;16.744;2022-09-16T10:16:29;14.8;53.2
67893;DHT22;54688;52.376;16.744;2022-09-16T10:19:34;14.8;52.2
67893;DHT22;54688;52.376;16.744;2022-09-16T10:22:39;14.8;51.1
67893;DHT22;54688;52.376;16.744;2022-09-16T10:25:41;14.8;51.9
67893;DHT22;54688;52.376;16.744;2022-09-16T10:28:52;14.8;52.6
67893;DHT22;54688;52.376;16.744;2022-09-16T10:31:58;14.9;51.7
67893;DHT22;54688;52.376;16.744;2022-09-16T10:35:05;15.1;51.5
67893;DHT22;54688;52.376;16.744;2022-09-16T10:38:12;15.2;51.4
67893;DHT22;54688;52.376;16.744;2022-09-16T10:41:20;15.3;50.9
67893;DHT22;54688;52.376;16.744;2022-09-16T10:44:25;15.5;50.5
67893;DHT22;54688;52.376;16.744;2022-09-16T10:47:29;15.5;48.8
67893;DHT22;54688;52.376;16.744;2022-09-16T10:50:34;15.6;48.3
67893;DHT22;54688;52.376;16.744;2022-09-16T10:53:37;15.6;48.8
67893;DHT22;54688;52.376;16.744;2022-09-16T10:56:45;15.7;48.6
67893;DHT22;54688;52.376;16.744;2022-09-16T10:59:57;15.8;47.8
67893;DHT22;54688;52.376;16.744;2022-09-16T11:03:06;15.9;47.3
67893;DHT22;54688;52.376;16.744;2022-09-16T11:06:30;15.9;47.6
67893;DHT22;54688;52.376;16.744;2022-09-16T11:09:42;15.8;48.4
67893;DHT22;54688;52.376;16.744;2022-09-16T11:13:22;15.9;48.6
67893;DHT22;54688;52.376;16.744;2022-09-16T11:16:40;16;48.8
67893;DHT22;54688;52.376;16.744;2022-09-16T11:22:54;16;48.1
67893;DHT22;54688;52.376;16.744;2022-09-16T11:26:06;16.1;48.7
67893;DHT22;54688;52.376;16.744;2022-09-16T11:29:18;16.3;46.2
67893;DHT22;54688;52.376;16.744;2022-09-16T11:32:35;16.3;46.5
67893;DHT22;54688;52.376;16.744;2022-09-16T11:36:30;16.3;46.2
67893;DHT22;54688;52.376;16.744;2022-09-16T11:40:44;16.3;46.1
67893;DHT22;54688;52.376;16.744;2022-09-16T11:43:52;16.2;46.3
67893;DHT22;54688;52.376;16.744;2022-09-16T11:47:15;16.2;46.8
67893;DHT22;54688;52.376;16.744;2022-09-16T11:50:32;16.1;47.1
67893;DHT22;54688;52.376;16.744;2022-09-16T11:53:45;16;46.6
67893;DHT22;54688;52.376;16.744;2022-09-16T11:57:01;15.8;46.7
67893;DHT22;54688;52.376;16.744;2022-09-16T12:00:08;15.5;47.2
67893;DHT22;54688;52.376;16.744;2022-09-16T12:03:16;15.4;47.7
67893;DHT22;54688;52.376;16.744;2022-09-16T12:06:27;15.4;47.8
67893;DHT22;54688;52.376;16.744;2022-09-16T12:09:35;15.2;49.2
67893;DHT22;54688;52.376;16.744;2022-09-16T12:12:43;15;49.6
67893;DHT22;54688;52.376;16.744;2022-09-16T12:15:48;14.9;50.7
67893;DHT22;54688;52.376;16.744;2022-09-16T12:18:55;14.9;51.9
67893;DHT22;54688;52.376;16.744;2022-09-16T12:22:00;14.9;52.1
67893;DHT22;54688;52.376;16.744;2022-09-16T12:25:07;15;52.4
67893;DHT22;54688;52.376;16.744;2022-09-16T12:28:15;15.2;51.4
67893;DHT22;54688;52.376;16.744;2022-09-16T12:31:23;15.4;52.3
67893;DHT22;54688;52.376;16.744;2022-09-16T12:34:32;15.7;50.9
67893;DHT22;54688;52.376;16.744;2022-09-16T12:37:38;16;49.9
67893;DHT22;54688;52.376;16.744;2022-09-16T12:40:50;16.3;48.3
67893;DHT22;54688;52.376;16.744;2022-09-16T12:44:12;16.6;47.4
67893;DHT22;54688;52.376;16.744;2022-09-16T12:47:31;16.8;47.3
67893;DHT22;54688;52.376;16.744;2022-09-16T12:50:48;16.9;46.2
67893;DHT22;54688;52.376;16.744;2022-09-16T12:54:06;16.8;47.3
67893;DHT22;54688;52.376;16.744;2022-09-16T12:57:30;16.7;47
67893;DHT22;54688;52.376;16.744;2022-09-16T13:00:44;16.6;47.6
67893;DHT22;54688;52.376;16.744;2022-09-16T13:03:58;16.5;46.5
67893;DHT22;54688;52.376;16.744;2022-09-16T13:07:04;16.2;43.2
67893;DHT22;54688;52.376;16.744;2022-09-16T13:10:07;16.2;44.3
67893;DHT22;54688;52.376;16.744;2022-09-16T13:13:19;16.3;43.8
67893;DHT22;54688;52.376;16.744;2022-09-16T13:16:30;16.4;44.9
67893;DHT22;54688;52.376;16.744;2022-09-16T13:19:36;16.4;42.3
67893;DHT22;54688;52.376;16.744;2022-09-16T13:22:43;16.5;41.9
67893;DHT22;54688;52.376;16.744;2022-09-16T13:25:48;16.6;42.1
67893;DHT22;54688;52.376;16.744;2022-09-16T13:28:57;16.6;43.1
67893;DHT22;54688;52.376;16.744;2022-09-16T13:31:59;16.7;44.2
67893;DHT22;54688;52.376;16.744;2022-09-16T13:35:02;16.6;43.8
67893;DHT22;54688;52.376;16.744;2022-09-16T13:38:22;16.4;43.7
67893;DHT22;54688;52.376;16.744;2022-09-16T13:41:28;16.3;44.2
67893;DHT22;54688;52.376;16.744;2022-09-16T13:44:39;16.1;46.2
67893;DHT22;54688;52.376;16.744;2022-09-16T13:47:46;16;49
67893;DHT22;54688;52.376;16.744;2022-09-16T13:50:50;15.8;49.3
67893;DHT22;54688;52.376;16.744;2022-09-16T13:53:55;15.6;48.8
67893;DHT22;54688;52.376;16.744;2022-09-16T13:57:31;15.5;49.9
67893;DHT22;54688;52.376;16.744;2022-09-16T14:00:44;15.5;48.8
67893;DHT22;54688;52.376;16.744;2022-09-16T14:03:54;15.6;46
67893;DHT22;54688;52.376;16.744;2022-09-16T14:07:07;15.7;45.7
67893;DHT22;54688;52.376;16.744;2022-09-16T14:10:17;15.8;45.7
67893;DHT22;54688;52.376;16.744;2022-09-16T14:13:29;16;46
67893;DHT22;54688;52.376;16.744;2022-09-16T14:16:38;16;46.3
67893;DHT22;54688;52.376;16.744;2022-09-16T14:19:42;16;46.3
67893;DHT22;54688;52.376;16.744;2022-09-16T14:22:46;16;47.6
67893;DHT22;54688;52.376;16.744;2022-09-16T14:25:48;16.1;47.2
67893;DHT22;54688;52.376;16.744;2022-09-16T14:28:50;16.2;47.1
67893;DHT22;54688;52.376;16.744;2022-09-16T14:32:03;16.2;47.3
67893;DHT22;54688;52.376;16.744;2022-09-16T14:35:08;16.4;48.1
67893;DHT22;54688;52.376;16.744;2022-09-16T14:38:13;16.6;45.4
67893;DHT22;54688;52.376;16.744;2022-09-16T14:41:18;16.7;44.2
67893;DHT22;54688;52.376;16.744;2022-09-16T14:44:25;16.9;44.4
67893;DHT22;54688;52.376;16.744;2022-09-16T14:47:34;17;44
67893;DHT22;54688;52.376;16.744;2022-09-16T14:50:40;17.2;44.4
67893;DHT22;54688;52.376;16.744;2022-09-16T14:53:52;17.4;44.2
67893;DHT22;54688;52.376;16.744;2022-09-16T14:56:56;17.6;43.2
67893;DHT22;54688;52.376;16.744;2022-09-16T15:00:00;17.7;43.3
67893;DHT22;54688;52.376;16.744;2022-09-16T15:03:11;17.9;43.1
67893;DHT22;54688;52.376;16.744;2022-09-16T15:06:17;18;42.6
67893;DHT22;54688;52.376;16.744;2022-09-16T15:09:23;18.1;42.5
67893;DHT22;54688;52.376;16.744;2022-09-16T15:12:28;18.2;42.6
67893;DHT22;54688;52.376;16.744;2022-09-16T15:15:34;18.2;42.1
67893;DHT22;54688;52.376;16.744;2022-09-16T15:18:37;18.1;42.1
67893;DHT22;54688;52.376;16.744;2022-09-16T15:21:42;18.2;42.2
67893;DHT22;54688;52.376;16.744;2022-09-16T15:24:46;18.3;42.1
67893;DHT22;54688;52.376;16.744;2022-09-16T15:28:01;18.3;41.9
67893;DHT22;54688;52.376;16.744;2022-09-16T15:31:05;18.4;42
67893;DHT22;54688;52.376;16.744;2022-09-16T15:34:18;18.4;41.9
67893;DHT22;54688;52.376;16.744;2022-09-16T15:37:30;18.4;42.1
67893;DHT22;54688;52.376;16.744;2022-09-16T15:40:33;18.4;42.2
67893;DHT22;54688;52.376;16.744;2022-09-16T15:43:35;18.4;42.7
67893;DHT22;54688;52.376;16.744;2022-09-16T15:46:38;18.5;42.4
67893;DHT22;54688;52.376;16.744;2022-09-16T15:49:45;18.6;42.7
67893;DHT22;54688;52.376;16.744;2022-09-16T15:52:52;18.6;43.1
67893;DHT22;54688;52.376;16.744;2022-09-16T15:55:59;18.6;42.7
67893;DHT22;54688;52.376;16.744;2022-09-16T15:59:04;18.4;43.2
67893;DHT22;54688;52.376;16.744;2022-09-16T16:02:20;18.2;43.1
67893;DHT22;54688;52.376;16.744;2022-09-16T16:05:28;18;43.1
67893;DHT22;54688;52.376;16.744;2022-09-16T16:08:40;17.9;43.4
67893;DHT22;54688;52.376;16.744;2022-09-16T16:11:45;17.9;44
67893;DHT22;54688;52.376;16.744;2022-09-16T16:14:47;17.9;43.4
67893;DHT22;54688;52.376;16.744;2022-09-16T16:17:49;17.7;43.8
67893;DHT22;54688;52.376;16.744;2022-09-16T16:20:52;17.5;44.5
67893;DHT22;54688;52.376;16.744;2022-09-16T16:23:54;17.3;45.3
67893;DHT22;54688;52.376;16.744;2022-09-16T16:26:55;17.1;45.7
67893;DHT22;54688;52.376;16.744;2022-09-16T16:29:58;16.9;46.4
67893;DHT22;54688;52.376;16.744;2022-09-16T16:33:00;16.7;46.7
67893;DHT22;54688;52.376;16.744;2022-09-16T16:36:02;16.6;47.1
67893;DHT22;54688;52.376;16.744;2022-09-16T16:39:04;16.4;47.5
67893;DHT22;54688;52.376;16.744;2022-09-16T16:42:08;16.2;48
67893;DHT22;54688;52.376;16.744;2022-09-16T16:45:11;15.9;48.3
67893;DHT22;54688;52.376;16.744;2022-09-16T16:48:14;15.7;49.1
67893;DHT22;54688;52.376;16.744;2022-09-16T16:51:16;15.4;49.9
67893;DHT22;54688;52.376;16.744;2022-09-16T16:54:18;15.2;51.4
67893;DHT22;54688;52.376;16.744;2022-09-16T16:57:21;15;51.1
67893;DHT22;54688;52.376;16.744;2022-09-16T17:00:23;14.8;51.7
67893;DHT22;54688;52.376;16.744;2022-09-16T17:03:25;14.5;52.6
67893;DHT22;54688;52.376;16.744;2022-09-16T17:06:31;14.3;53.1
67893;DHT22;54688;52.376;16.744;2022-09-16T17:09:34;14.1;53.9
67893;DHT22;54688;52.376;16.744;2022-09-16T17:12:36;13.9;54.6
67893;DHT22;54688;52.376;16.744;2022-09-16T17:15:38;13.7;55.4
67893;DHT22;54688;52.376;16.744;2022-09-16T17:18:40;13.5;56
67893;DHT22;54688;52.376;16.744;2022-09-16T17:21:43;13.4;56.6
67893;DHT22;54688;52.376;16.744;2022-09-16T17:24:46;13.2;57
67893;DHT22;54688;52.376;16.744;2022-09-16T17:27:48;13.1;57.5
67893;DHT22;54688;52.376;16.744;2022-09-16T17:30:51;13;57.8
67893;DHT22;54688;52.376;16.744;2022-09-16T17:33:53;12.9;57.3
67893;DHT22;54688;52.376;16.744;2022-09-16T17:36:56;12.8;59.3
67893;DHT22;54688;52.376;16.744;2022-09-16T17:39:58;12.7;58.9
67893;DHT22;54688;52.376;16.744;2022-09-16T17:43:00;12.6;59
67893;DHT22;54688;52.376;16.744;2022-09-16T17:46:03;12.6;59.1
67893;DHT22;54688;52.376;16.744;2022-09-16T17:49:06;12.6;59.4
67893;DHT22;54688;52.376;16.744;2022-09-16T17:52:11;12.5;59.4
67893;DHT22;54688;52.376;16.744;2022-09-16T17:55:13;12.4;59.3
67893;DHT22;54688;52.376;16.744;2022-09-16T17:58:15;12.4;59.4
67893;DHT22;54688;52.376;16.744;2022-09-16T18:01:18;12.4;59.1
67893;DHT22;54688;52.376;16.744;2022-09-16T18:04:22;12.3;60.1
67893;DHT22;54688;52.376;16.744;2022-09-16T18:07:24;12.3;60.5
67893;DHT22;54688;52.376;16.744;2022-09-16T18:10:26;12.3;60.6
67893;DHT22;54688;52.376;16.744;2022-09-16T18:13:28;12.2;61.1
67893;DHT22;54688;52.376;16.744;2022-09-16T18:16:30;12.1;61.5
67893;DHT22;54688;52.376;16.744;2022-09-16T18:19:32;12;62.1
67893;DHT22;54688;52.376;16.744;2022-09-16T18:22:34;11.9;62.6
67893;DHT22;54688;52.376;16.744;2022-09-16T18:25:36;11.8;63.8
67893;DHT22;54688;52.376;16.744;2022-09-16T18:28:39;11.7;63.6
67893;DHT22;54688;52.376;16.744;2022-09-16T18:31:43;11.6;64.2
67893;DHT22;54688;52.376;16.744;2022-09-16T18:34:46;11.5;65.2
67893;DHT22;54688;52.376;16.744;2022-09-16T18:37:48;11.5;65.6
67893;DHT22;54688;52.376;16.744;2022-09-16T18:40:50;11.5;65.9
67893;DHT22;54688;52.376;16.744;2022-09-16T18:43:53;11.5;65.9
67893;DHT22;54688;52.376;16.744;2022-09-16T18:46:56;11.5;67
67893;DHT22;54688;52.376;16.744;2022-09-16T18:49:58;11.5;67.3
67893;DHT22;54688;52.376;16.744;2022-09-16T18:53:00;11.5;67.4
67893;DHT22;54688;52.376;16.744;2022-09-16T18:56:02;11.5;67.5
67893;DHT22;54688;52.376;16.744;2022-09-16T18:59:05;11.6;67.8
67893;DHT22;54688;52.376;16.744;2022-09-16T19:02:09;11.5;68
67893;DHT22;54688;52.376;16.744;2022-09-16T19:05:12;11.5;68.5
67893;DHT22;54688;52.376;16.744;2022-09-16T19:08:15;11.4;68.9
67893;DHT22;54688;52.376;16.744;2022-09-16T19:11:17;11.3;69.3
67893;DHT22;54688;52.376;16.744;2022-09-16T19:14:19;11.4;69.6
67893;DHT22;54688;52.376;16.744;2022-09-16T19:17:22;11.3;69.9
67893;DHT22;54688;52.376;16.744;2022-09-16T19:20:24;11.2;70.2
67893;DHT22;54688;52.376;16.744;2022-09-16T19:23:26;11.2;70.5
67893;DHT22;54688;52.376;16.744;2022-09-16T19:26:32;11.1;71
67893;DHT22;54688;52.376;16.744;2022-09-16T19:29:36;11.1;70.9
67893;DHT22;54688;52.376;16.744;2022-09-16T19:32:38;10.9;71.6
67893;DHT22;54688;52.376;16.744;2022-09-16T19:35:40;10.9;72.1
67893;DHT22;54688;52.376;16.744;2022-09-16T19:41:40;10.8;73.6
67893;DHT22;54688;52.376;16.744;2022-09-16T19:44:43;10.7;73.7
67893;DHT22;54688;52.376;16.744;2022-09-16T19:47:45;10.7;73.3
67893;DHT22;54688;52.376;16.744;2022-09-16T19:50:49;10.6;73.5
67893;DHT22;54688;52.376;16.744;2022-09-16T19:53:52;10.6;73.6
67893;DHT22;54688;52.376;16.744;2022-09-16T19:56:55;10.5;73.9
67893;DHT22;54688;52.376;16.744;2022-09-16T19:59:56;10.5;73.6
67893;DHT22;54688;52.376;16.744;2022-09-16T20:02:58;10.4;73.7
67893;DHT22;54688;52.376;16.744;2022-09-16T20:06:01;10.4;73.7
67893;DHT22;54688;52.376;16.744;2022-09-16T20:09:07;10.3;73.7
67893;DHT22;54688;52.376;16.744;2022-09-16T20:12:11;10.3;73.7
67893;DHT22;54688;52.376;16.744;2022-09-16T20:15:14;10.2;73.8
67893;DHT22;54688;52.376;16.744;2022-09-16T20:18:15;10.2;73.8